createdAt,value
2019-03-16T00:01:35.469Z,8.30
2019-03-16T00:04:05.212Z,6.83
2019-03-16T00:06:38.099Z,16.57
2019-03-16T00:09:08.398Z,14.67
2019-03-16T00:11:37.304Z,8.67
2019-03-16T00:14:07.069Z,10.87
2019-03-16T00:16:36.283Z,10.50
2019-03-16T00:19:06.509Z,7.90
2019-03-16T00:21:35.646Z,13.90
2019-03-16T00:24:04.625Z,7.50
2019-03-16T00:26:33.864Z,11.77
2019-03-16T00:29:03.052Z,14.40
2019-03-16T00:31:32.581Z,14.17
2019-03-16T00:34:01.417Z,14.03
2019-03-16T00:36:32.200Z,15.43
2019-03-16T00:39:01.279Z,7.93
2019-03-16T00:41:30.536Z,15.43
2019-03-16T00:43:59.462Z,10.30
2019-03-16T00:46:28.264Z,10.43
2019-03-16T00:48:57.368Z,7.63
2019-03-16T00:51:26.772Z,9.53
2019-03-16T00:53:56.519Z,13.23
2019-03-16T00:56:25.616Z,5.03
2019-03-16T00:58:54.636Z,14.43
2019-03-16T01:01:24.159Z,11.07
2019-03-16T01:03:52.976Z,17.23
2019-03-16T01:06:24.053Z,15.03
2019-03-16T01:08:53.027Z,11.60
2019-03-16T01:11:21.916Z,13.13
2019-03-16T01:13:50.819Z,13.73
2019-03-16T01:16:19.625Z,10.03
2019-03-16T01:18:48.625Z,14.93
2019-03-16T01:21:17.835Z,14.90
2019-03-16T01:23:46.677Z,13.72
2019-03-16T01:26:16.409Z,11.03
2019-03-16T01:28:45.391Z,12.40
2019-03-16T01:31:14.501Z,15.70
2019-03-16T01:33:43.392Z,9.57
2019-03-16T01:36:12.176Z,10.70
2019-03-16T01:38:41.048Z,8.07
2019-03-16T01:41:09.999Z,13.60
2019-03-16T01:43:38.936Z,17.17
2019-03-16T01:46:07.792Z,15.07
2019-03-16T01:48:37.148Z,9.30
2019-03-16T01:51:05.935Z,13.83
2019-03-16T01:53:35.154Z,12.33
2019-03-16T01:56:04.038Z,7.63
2019-03-16T01:58:32.996Z,11.20
2019-03-16T02:01:01.804Z,9.23
2019-03-16T02:03:30.979Z,11.20
2019-03-16T02:06:00.120Z,8.73
2019-03-16T02:08:30.144Z,12.50
2019-03-16T02:11:00.993Z,12.17
2019-03-16T02:13:30.001Z,13.53
2019-03-16T02:16:10.243Z,14.67
2019-03-16T02:18:29.982Z,12.13
2019-03-16T02:20:58.784Z,13.27
2019-03-16T02:23:28.544Z,16.40
2019-03-16T02:25:57.644Z,11.93
2019-03-16T02:28:26.483Z,6.80
2019-03-16T02:30:57.751Z,14.43
2019-03-16T02:33:26.716Z,8.30
2019-03-16T02:35:55.809Z,14.70
2019-03-16T02:38:24.726Z,14.10
2019-03-16T02:40:53.549Z,13.53
2019-03-16T02:43:22.317Z,11.63
2019-03-16T02:45:51.141Z,18.17
2019-03-16T02:48:20.179Z,10.93
2019-03-16T02:50:48.953Z,14.57
2019-03-16T02:53:17.765Z,15.90
2019-03-16T02:55:46.584Z,12.33
2019-03-16T02:58:15.922Z,15.87
2019-03-16T03:00:44.848Z,14.20
2019-03-16T03:03:28.378Z,10.97
2019-03-16T03:05:46.276Z,9.17
2019-03-16T03:08:15.150Z,10.13
2019-03-16T03:10:44.112Z,8.20
2019-03-16T03:13:13.852Z,10.77
2019-03-16T03:15:43.786Z,12.33
2019-03-16T03:18:12.661Z,11.07
2019-03-16T03:20:41.591Z,15.77
2019-03-16T03:23:10.801Z,11.37
2019-03-16T03:25:39.973Z,3.03
2019-03-16T03:28:09.139Z,8.73
2019-03-16T03:30:38.353Z,14.20
2019-03-16T03:33:07.626Z,10.33
2019-03-16T03:35:37.039Z,19.73
2019-03-16T03:38:05.960Z,11.50
2019-03-16T03:40:35.344Z,11.90
2019-03-16T03:43:04.293Z,12.90
2019-03-16T03:45:33.246Z,12.43
2019-03-16T03:48:02.467Z,8.60
2019-03-16T03:50:33.133Z,17.40
2019-03-16T03:53:03.351Z,10.53
2019-03-16T03:55:32.533Z,12.77
2019-03-16T03:58:01.659Z,13.73
2019-03-16T04:00:30.401Z,11.80
2019-03-16T04:02:59.241Z,13.07
2019-03-16T04:05:28.362Z,15.00
2019-03-16T04:07:57.253Z,11.37
2019-03-16T04:10:26.568Z,15.00
2019-03-16T04:12:55.282Z,8.80
2019-03-16T04:15:24.225Z,10.93
2019-03-16T04:17:53.115Z,14.83
2019-03-16T04:20:22.421Z,12.83
2019-03-16T04:22:52.127Z,17.17
2019-03-16T04:25:21.038Z,10.33
2019-03-16T04:27:49.888Z,13.00
2019-03-16T04:30:18.711Z,12.13
2019-03-16T04:32:47.860Z,14.87
2019-03-16T04:35:16.952Z,17.77
2019-03-16T04:37:45.688Z,12.53
2019-03-16T04:40:14.540Z,14.10
2019-03-16T04:42:43.460Z,8.83
2019-03-16T04:45:12.304Z,15.30
2019-03-16T04:47:41.290Z,10.17
2019-03-16T04:50:10.383Z,8.63
2019-03-16T04:52:39.525Z,10.17
2019-03-16T04:55:08.907Z,7.03
2019-03-16T04:57:37.708Z,10.13
2019-03-16T05:00:06.631Z,6.60
2019-03-16T05:02:35.984Z,8.20
2019-03-16T05:05:05.603Z,10.70
2019-03-16T05:07:34.523Z,5.10
2019-03-16T05:10:07.118Z,8.88
2019-03-16T05:12:35.896Z,9.43
2019-03-16T05:15:05.583Z,8.70
2019-03-16T05:17:34.741Z,9.03
2019-03-16T05:20:04.742Z,8.75
2019-03-16T05:22:33.900Z,8.67
2019-03-16T05:25:02.699Z,7.63
2019-03-16T05:27:31.521Z,9.67
2019-03-16T05:30:00.389Z,8.80
2019-03-16T05:32:29.260Z,11.13
2019-03-16T05:34:58.151Z,12.27
2019-03-16T05:37:27.381Z,9.00
2019-03-16T05:39:56.136Z,5.77
2019-03-16T05:42:24.848Z,10.00
2019-03-16T05:44:53.660Z,6.70
2019-03-16T05:47:22.765Z,10.90
2019-03-16T05:49:51.552Z,10.90
2019-03-16T05:52:20.292Z,7.03
2019-03-16T05:54:49.451Z,12.53
2019-03-16T05:57:18.240Z,7.60
2019-03-16T05:59:47.077Z,8.37
2019-03-16T06:02:16.768Z,11.45
2019-03-16T06:04:46.577Z,10.50
2019-03-16T06:07:15.355Z,4.83
2019-03-16T06:09:45.474Z,11.80
2019-03-16T06:12:14.288Z,6.97
2019-03-16T06:14:43.232Z,11.17
2019-03-16T06:17:12.201Z,13.47
2019-03-16T06:19:41.233Z,14.33
2019-03-16T06:22:10.481Z,15.07
2019-03-16T06:24:39.416Z,7.30
2019-03-16T06:27:08.536Z,13.40
2019-03-16T06:29:37.434Z,10.10
2019-03-16T06:32:06.160Z,8.80
2019-03-16T06:34:34.874Z,8.20
2019-03-16T06:37:03.685Z,9.57
2019-03-16T06:39:32.577Z,13.20
2019-03-16T06:42:01.756Z,14.10
2019-03-16T06:44:31.169Z,13.13
2019-03-16T06:47:00.413Z,10.57
2019-03-16T06:49:30.164Z,11.73
2019-03-16T06:51:59.208Z,9.93
2019-03-16T06:54:28.685Z,6.37
2019-03-16T06:56:57.789Z,10.37
2019-03-16T06:59:27.403Z,6.50
2019-03-16T07:01:56.305Z,12.23
2019-03-16T07:04:28.066Z,6.20
2019-03-16T07:06:58.361Z,6.97
2019-03-16T07:09:27.140Z,7.93
2019-03-16T07:11:56.223Z,7.37
2019-03-16T07:14:25.495Z,6.87
2019-03-16T07:17:02.165Z,11.17
2019-03-16T07:19:25.571Z,9.97
2019-03-16T07:21:54.295Z,7.83
2019-03-16T07:24:23.150Z,8.83
2019-03-16T07:26:51.973Z,9.13
2019-03-16T07:29:20.833Z,6.43
2019-03-16T07:31:49.580Z,6.87
2019-03-16T07:34:20.023Z,13.87
2019-03-16T07:36:49.379Z,10.93
2019-03-16T07:39:19.248Z,10.73
2019-03-16T07:41:48.176Z,7.67
2019-03-16T07:44:17.367Z,5.37
2019-03-16T07:46:46.207Z,10.40
2019-03-16T07:49:15.397Z,11.63
2019-03-16T07:51:44.212Z,9.80
2019-03-16T07:54:13.236Z,10.10
2019-03-16T07:56:43.515Z,7.60
2019-03-16T07:59:12.824Z,13.37
2019-03-16T08:01:41.569Z,9.07
2019-03-16T08:04:11.061Z,8.87
2019-03-16T08:06:39.784Z,6.87
2019-03-16T08:09:08.585Z,9.10
2019-03-16T08:11:37.372Z,8.73
2019-03-16T08:14:06.213Z,4.00
2019-03-16T08:16:35.092Z,4.87
2019-03-16T08:19:04.801Z,4.73
2019-03-16T08:21:33.617Z,7.83
2019-03-16T08:24:02.801Z,6.00
2019-03-16T08:26:31.828Z,8.13
2019-03-16T08:29:00.678Z,8.23
2019-03-16T08:31:29.815Z,6.30
2019-03-16T08:33:58.660Z,4.83
2019-03-16T08:36:29.320Z,5.27
2019-03-16T08:38:58.141Z,8.30
2019-03-16T08:41:28.116Z,7.50
2019-03-16T08:43:57.089Z,8.73
2019-03-16T08:46:25.908Z,9.10
2019-03-16T08:48:55.111Z,6.10
2019-03-16T08:51:24.169Z,8.40
2019-03-16T08:53:54.248Z,10.00
2019-03-16T08:56:24.921Z,9.40
2019-03-16T08:58:53.809Z,6.80
2019-03-16T09:01:23.154Z,9.67
2019-03-16T09:03:52.108Z,6.10
2019-03-16T09:06:23.860Z,4.53
2019-03-16T09:08:53.032Z,9.27
2019-03-16T09:11:22.338Z,11.43
2019-03-16T09:13:51.145Z,8.60
2019-03-16T09:16:20.483Z,5.13
2019-03-16T09:18:49.677Z,7.60
2019-03-16T09:21:19.438Z,7.80
2019-03-16T09:23:48.237Z,9.37
2019-03-16T09:26:17.071Z,9.63
2019-03-16T09:28:59.323Z,9.50
2019-03-16T09:31:17.957Z,5.60
2019-03-16T09:33:46.797Z,4.23
2019-03-16T09:36:15.848Z,6.23
2019-03-16T09:38:44.700Z,5.90
2019-03-16T09:41:13.480Z,8.80
2019-03-16T09:43:42.213Z,7.97
2019-03-16T09:46:11.248Z,3.20
2019-03-16T09:48:40.122Z,1.97
2019-03-16T09:51:08.929Z,2.67
2019-03-16T09:53:38.392Z,4.23
2019-03-16T09:56:07.465Z,4.57
2019-03-16T09:58:37.016Z,2.13
2019-03-16T10:01:06.441Z,3.03
2019-03-16T10:03:35.472Z,3.87
2019-03-16T10:06:05.023Z,4.00
2019-03-16T10:08:33.903Z,2.53
2019-03-16T10:11:02.936Z,4.93
2019-03-16T10:13:32.100Z,4.60
2019-03-16T10:16:01.460Z,3.97
2019-03-16T10:18:30.279Z,6.37
2019-03-16T10:20:59.245Z,3.93
2019-03-16T10:23:28.081Z,5.00
2019-03-16T10:25:57.909Z,4.17
2019-03-16T10:28:26.694Z,3.60
2019-03-16T10:30:58.772Z,2.70
2019-03-16T10:33:27.861Z,2.90
2019-03-16T10:35:56.703Z,6.17
2019-03-16T10:38:25.899Z,2.83
2019-03-16T10:40:54.880Z,2.53
2019-03-16T10:43:23.677Z,2.30
2019-03-16T10:45:52.692Z,2.30
2019-03-16T10:48:21.417Z,2.30
2019-03-16T10:50:50.425Z,3.90
2019-03-16T10:53:20.445Z,1.93
2019-03-16T10:55:49.396Z,2.67
2019-03-16T10:58:18.744Z,5.20
2019-03-16T11:00:47.918Z,3.70
2019-03-16T11:03:17.309Z,4.67
2019-03-16T11:05:48.195Z,5.87
2019-03-16T11:08:17.560Z,2.17
2019-03-16T11:10:46.388Z,2.60
2019-03-16T11:13:16.709Z,1.57
2019-03-16T11:15:46.307Z,2.20
2019-03-16T11:18:15.365Z,0.73
2019-03-16T11:20:44.188Z,1.10
2019-03-16T11:23:12.942Z,3.90
2019-03-16T11:25:41.790Z,1.80
2019-03-16T11:28:10.620Z,1.97
2019-03-16T11:30:39.336Z,3.67
2019-03-16T11:33:08.494Z,1.10
2019-03-16T11:35:37.561Z,1.47
2019-03-16T11:38:06.287Z,1.43
2019-03-16T11:40:35.125Z,2.90
2019-03-16T11:43:04.036Z,0.30
2019-03-16T11:45:33.055Z,1.17
2019-03-16T11:48:01.878Z,2.10
2019-03-16T11:50:30.689Z,1.53
2019-03-16T11:52:59.744Z,1.70
2019-03-16T11:55:29.168Z,4.40
2019-03-16T11:57:58.122Z,1.70
2019-03-16T12:00:28.177Z,2.50
2019-03-16T12:02:57.208Z,1.80
2019-03-16T12:05:26.018Z,1.57
2019-03-16T12:07:54.944Z,2.67
2019-03-16T12:10:24.008Z,1.67
2019-03-16T12:12:53.620Z,4.30
2019-03-16T12:15:22.893Z,2.93
2019-03-16T12:17:52.669Z,1.90
2019-03-16T12:20:21.464Z,2.10
2019-03-16T12:22:50.208Z,2.00
2019-03-16T12:25:20.085Z,1.67
2019-03-16T12:27:48.823Z,2.77
2019-03-16T12:30:17.956Z,1.60
2019-03-16T12:32:47.122Z,1.77
2019-03-16T12:35:16.297Z,3.17
2019-03-16T12:37:45.570Z,1.20
2019-03-16T12:40:14.792Z,1.60
2019-03-16T12:42:44.005Z,0.93
2019-03-16T12:45:14.018Z,1.03
2019-03-16T12:47:44.744Z,1.10
2019-03-16T12:50:13.769Z,1.00
2019-03-16T12:52:43.756Z,1.90
2019-03-16T12:55:12.945Z,1.17
2019-03-16T12:57:41.901Z,1.27
2019-03-16T13:00:12.062Z,1.60
2019-03-16T13:02:40.813Z,2.00
2019-03-16T13:05:10.268Z,2.40
2019-03-16T13:07:40.508Z,1.90
2019-03-16T13:10:11.741Z,2.00
2019-03-16T13:12:40.747Z,2.20
2019-03-16T13:15:09.644Z,1.70
2019-03-16T13:17:38.745Z,2.63
2019-03-16T13:20:08.762Z,1.50
2019-03-16T13:22:39.105Z,1.23
2019-03-16T13:25:08.752Z,1.40
2019-03-16T13:27:37.636Z,1.50
2019-03-16T13:30:07.912Z,1.80
2019-03-16T13:32:37.000Z,1.20
2019-03-16T13:35:06.052Z,1.83
2019-03-16T13:37:34.845Z,2.30
2019-03-16T13:40:04.980Z,2.10
2019-03-16T13:42:34.020Z,1.50
2019-03-16T13:45:02.817Z,1.23
2019-03-16T13:47:31.564Z,1.10
2019-03-16T13:50:00.372Z,1.03
2019-03-16T13:52:29.244Z,1.00
2019-03-16T13:54:58.320Z,1.37
2019-03-16T13:57:28.189Z,1.10
2019-03-16T13:59:57.129Z,1.30
2019-03-16T14:02:26.488Z,1.00
2019-03-16T14:04:55.935Z,4.43
2019-03-16T14:07:25.536Z,1.40
2019-03-16T14:09:55.056Z,1.00
2019-03-16T14:12:23.971Z,0.83
2019-03-16T14:14:53.779Z,1.43
2019-03-16T14:17:22.781Z,1.03
2019-03-16T14:19:51.938Z,1.10
2019-03-16T14:22:22.050Z,1.60
2019-03-16T14:24:51.407Z,1.53
2019-03-16T14:27:20.168Z,1.83
2019-03-16T14:29:49.696Z,1.70
2019-03-16T14:32:20.694Z,1.50
2019-03-16T14:34:49.940Z,1.60
2019-03-16T14:37:19.084Z,1.83
2019-03-16T14:39:48.824Z,2.00
2019-03-16T14:42:17.716Z,2.20
2019-03-16T14:44:46.761Z,3.03
2019-03-16T14:47:15.771Z,2.80
2019-03-16T14:49:45.227Z,2.93
2019-03-16T14:52:14.289Z,3.20
2019-03-16T14:54:43.035Z,3.07
2019-03-16T14:57:11.816Z,3.20
2019-03-16T14:59:40.920Z,3.50
2019-03-16T15:02:10.004Z,3.40
2019-03-16T15:04:39.192Z,3.63
2019-03-16T15:07:08.020Z,3.90
2019-03-16T15:09:36.756Z,4.07
2019-03-16T15:12:06.385Z,4.20
2019-03-16T15:14:35.591Z,4.60
2019-03-16T15:17:04.485Z,5.10
2019-03-16T15:19:33.332Z,5.20
2019-03-16T15:22:02.156Z,5.50
2019-03-16T15:24:32.005Z,5.40
2019-03-16T15:27:03.097Z,6.33
2019-03-16T15:29:33.220Z,5.70
2019-03-16T15:32:02.404Z,7.30
2019-03-16T15:34:31.468Z,6.80
2019-03-16T15:37:00.653Z,7.37
2019-03-16T15:39:29.765Z,7.07
2019-03-16T15:41:59.116Z,7.30
2019-03-16T15:44:27.995Z,8.80
2019-03-16T15:46:56.820Z,9.63
2019-03-16T15:49:25.944Z,7.67
2019-03-16T15:51:54.692Z,8.47
2019-03-16T15:54:23.540Z,7.67
2019-03-16T15:56:52.985Z,8.13
2019-03-16T15:59:21.776Z,11.30
2019-03-16T16:01:50.620Z,8.03
2019-03-16T16:04:19.504Z,8.93
2019-03-16T16:06:49.364Z,10.33
2019-03-16T16:09:18.100Z,8.67
2019-03-16T16:11:47.008Z,10.57
2019-03-16T16:14:16.549Z,10.87
2019-03-16T16:16:45.396Z,11.70
2019-03-16T16:19:14.313Z,13.03
2019-03-16T16:21:43.072Z,11.43
2019-03-16T16:24:12.041Z,13.20
2019-03-16T16:26:40.865Z,12.50
2019-03-16T16:29:09.764Z,13.50
2019-03-16T16:31:38.652Z,12.93
2019-03-16T16:34:07.456Z,11.40
2019-03-16T16:36:36.208Z,15.40
2019-03-16T16:39:06.785Z,13.87
2019-03-16T16:41:35.702Z,12.43
2019-03-16T16:44:04.760Z,11.70
2019-03-16T16:46:33.583Z,9.10
2019-03-16T16:49:02.519Z,17.17
2019-03-16T16:51:31.256Z,13.40
2019-03-16T16:54:00.440Z,13.77
2019-03-16T16:56:29.760Z,9.97
2019-03-16T16:58:58.500Z,11.63
2019-03-16T17:01:29.592Z,14.80
2019-03-16T17:03:57.911Z,9.00
2019-03-16T17:06:26.687Z,8.67
2019-03-16T17:08:55.481Z,11.70
2019-03-16T17:11:26.273Z,12.60
2019-03-16T17:13:56.481Z,11.40
2019-03-16T17:16:25.456Z,10.20
2019-03-16T17:18:54.223Z,10.33
2019-03-16T17:21:22.945Z,10.77
2019-03-16T17:23:51.675Z,11.67
2019-03-16T17:26:21.051Z,15.10
2019-03-16T17:28:49.969Z,11.53
2019-03-16T17:31:19.158Z,15.67
2019-03-16T17:33:48.157Z,11.50
2019-03-16T17:36:17.132Z,16.03
2019-03-16T17:38:45.853Z,17.50
2019-03-16T17:41:14.645Z,15.23
2019-03-16T17:43:43.356Z,18.23
2019-03-16T17:46:12.727Z,15.83
2019-03-16T17:48:41.524Z,14.93
2019-03-16T17:51:10.236Z,14.00
2019-03-16T17:53:38.999Z,18.37
2019-03-16T17:56:07.757Z,17.83
2019-03-16T17:58:36.792Z,12.60
2019-03-16T18:01:05.640Z,15.63
2019-03-16T18:03:34.453Z,17.80
2019-03-16T18:06:03.496Z,11.90
2019-03-16T18:08:33.552Z,12.43
2019-03-16T18:11:02.512Z,14.80
2019-03-16T18:13:31.415Z,11.30
2019-03-16T18:16:01.549Z,11.10
2019-03-16T18:18:30.377Z,13.47
2019-03-16T18:20:59.272Z,12.20
2019-03-16T18:23:28.425Z,7.70
2019-03-16T18:25:58.316Z,10.13
2019-03-16T18:28:28.102Z,11.20
2019-03-16T18:30:56.909Z,13.87
2019-03-16T18:33:25.639Z,9.83
2019-03-16T18:35:54.436Z,7.33
2019-03-16T18:38:23.181Z,6.27
2019-03-16T18:40:52.148Z,6.77
2019-03-16T18:43:21.144Z,9.17
2019-03-16T18:45:50.008Z,6.53
2019-03-16T18:48:18.889Z,10.80
2019-03-16T18:50:47.683Z,8.27
2019-03-16T18:53:16.609Z,11.30
2019-03-16T18:55:45.446Z,12.43
2019-03-16T18:58:14.456Z,7.70
2019-03-16T19:00:43.640Z,7.87
2019-03-16T19:03:12.536Z,7.80
2019-03-16T19:05:41.340Z,5.07
2019-03-16T19:08:10.197Z,8.77
2019-03-16T19:10:39.503Z,7.00
2019-03-16T19:13:08.468Z,6.70
2019-03-16T19:15:37.503Z,6.70
2019-03-16T19:18:06.692Z,5.47
2019-03-16T19:20:35.667Z,11.23
2019-03-16T19:23:04.820Z,5.10
2019-03-16T19:25:34.774Z,5.10
2019-03-16T19:28:03.497Z,5.33
2019-03-16T19:30:32.711Z,5.40
2019-03-16T19:33:01.818Z,5.80
2019-03-16T19:35:30.651Z,4.10
2019-03-16T19:37:59.445Z,5.40
2019-03-16T19:40:28.188Z,5.67
2019-03-16T19:42:57.146Z,6.67
2019-03-16T19:45:26.848Z,3.63
2019-03-16T19:47:55.956Z,4.83
2019-03-16T19:50:25.956Z,2.90
2019-03-16T19:52:54.904Z,3.93
2019-03-16T19:55:23.650Z,3.03
2019-03-16T19:57:52.732Z,3.80
2019-03-16T20:00:21.595Z,5.67
2019-03-16T20:02:52.136Z,3.27
2019-03-16T20:05:21.960Z,3.07
2019-03-16T20:07:51.209Z,6.03
2019-03-16T20:10:20.374Z,4.27
2019-03-16T20:12:52.907Z,3.13
2019-03-16T20:15:20.512Z,2.67
2019-03-16T20:17:49.304Z,5.87
2019-03-16T20:20:18.273Z,5.57
2019-03-16T20:22:47.413Z,2.80
2019-03-16T20:25:16.601Z,4.90
2019-03-16T20:27:46.792Z,5.30
2019-03-16T20:30:16.010Z,6.70
2019-03-16T20:32:50.341Z,5.17
2019-03-16T20:35:15.585Z,4.50
2019-03-16T20:37:45.116Z,3.47
2019-03-16T20:40:14.112Z,5.47
2019-03-16T20:42:43.856Z,2.43
2019-03-16T20:45:12.968Z,2.13
2019-03-16T20:47:42.284Z,3.00
2019-03-16T20:50:11.437Z,2.27
2019-03-16T20:52:40.140Z,1.87
2019-03-16T20:55:09.178Z,2.70
2019-03-16T20:57:37.996Z,2.70
2019-03-16T21:00:07.295Z,3.93
2019-03-16T21:02:36.018Z,2.30
2019-03-16T21:05:05.748Z,4.27
2019-03-16T21:07:34.978Z,3.80
2019-03-16T21:10:04.644Z,3.77
2019-03-16T21:12:33.572Z,4.40
2019-03-16T21:15:02.539Z,4.30
2019-03-16T21:17:31.483Z,1.77
2019-03-16T21:20:00.966Z,4.73
2019-03-16T21:22:36.158Z,5.73
2019-03-16T21:25:00.382Z,3.97
2019-03-16T21:27:29.648Z,2.10
2019-03-16T21:29:58.693Z,3.80
2019-03-16T21:32:27.518Z,4.83
2019-03-16T21:34:56.868Z,5.80
2019-03-16T21:37:25.592Z,3.47
2019-03-16T21:39:54.830Z,4.20
2019-03-16T21:42:23.729Z,3.63
2019-03-16T21:44:52.576Z,6.07
2019-03-16T21:47:21.300Z,5.87
2019-03-16T21:49:50.556Z,2.77
2019-03-16T21:52:19.948Z,2.63
2019-03-16T21:54:49.119Z,3.73
2019-03-16T21:57:18.525Z,4.60
2019-03-16T21:59:47.697Z,2.77
2019-03-16T22:02:16.560Z,6.07
2019-03-16T22:04:45.675Z,2.73
2019-03-16T22:07:14.568Z,2.70
2019-03-16T22:09:44.536Z,4.00
2019-03-16T22:12:13.568Z,2.67
2019-03-16T22:14:44.020Z,5.03
2019-03-16T22:17:12.809Z,5.47
2019-03-16T22:19:41.666Z,6.77
2019-03-16T22:22:10.477Z,3.30
2019-03-16T22:24:39.260Z,2.13
2019-03-16T22:27:08.392Z,3.07
2019-03-16T22:29:38.950Z,2.93
2019-03-16T22:32:08.292Z,6.50
2019-03-16T22:34:37.032Z,4.57
2019-03-16T22:37:06.996Z,2.47
2019-03-16T22:39:35.996Z,3.53
2019-03-16T22:42:05.122Z,4.07
2019-03-16T22:44:34.022Z,5.50
2019-03-16T22:47:03.048Z,4.40
2019-03-16T22:49:31.784Z,3.30
2019-03-16T22:52:00.697Z,5.50
2019-03-16T22:54:29.856Z,6.23
2019-03-16T22:56:58.580Z,8.33
2019-03-16T22:59:27.299Z,4.80
2019-03-16T23:02:15.329Z,4.23
2019-03-16T23:04:44.254Z,3.83
2019-03-16T23:07:13.120Z,5.17
2019-03-16T23:09:41.860Z,4.73
2019-03-16T23:12:10.628Z,3.10
2019-03-16T23:14:39.432Z,4.53
2019-03-16T23:17:08.546Z,3.37
2019-03-16T23:19:37.528Z,3.70
2019-03-16T23:22:06.425Z,3.20
2019-03-16T23:24:35.424Z,4.20
2019-03-16T23:27:04.513Z,3.30
2019-03-16T23:29:33.599Z,4.00
2019-03-16T23:32:02.432Z,5.53
2019-03-16T23:34:31.252Z,2.97
2019-03-16T23:37:00.504Z,6.60
2019-03-16T23:39:29.644Z,4.87
2019-03-16T23:41:58.367Z,3.83
2019-03-16T23:44:27.424Z,3.90
2019-03-16T23:46:56.681Z,3.33
2019-03-16T23:49:25.501Z,3.27
2019-03-16T23:51:54.629Z,3.40
2019-03-16T23:54:23.664Z,3.40
2019-03-16T23:56:52.540Z,4.07
2019-03-16T23:59:21.402Z,4.23
